Metar z pełnej godziny Komunikat METAR ze strony awiacja.imgw.pl Metar G00 EPRA METAR EPRA 230900Z 29010KT 9999 SCT035 08/M02 Q1020=